Match Point — CRA4590 — position and weather

sailwx.info

Track history (hours):
 
Tides and Currents Weather Stations Pressure Air Temp Water Temp Dewpoint Dewpoint Depression Visibility Wind Speed Wind Dir Waves Ship Positions

Match Point

Last reported at 2015-Jul-19 17:33 UTC. Time now 2015-Jul-29 15:55 UTC.
Position N 38°40' W 009°21'.
Warning: this ship's position is 9 days out of date.

Length 15 m.

Type: Sailing vessel. MMSI: 263913640.

Date/timePositionNaut miles runAvg speedWind from/ knotsBaromVisibWave heightAir tempDewpointWater temp
2015-Jul-19 17:33N 38°40' W 009°21'3 1.4
2015-Jul-19 15:07N 38°42' W 009°25'0 0.0
2015-Jul-19 14:31N 38°42' W 009°25'0 0.0
2015-Jul-19 13:31N 38°42' W 009°25'0 0.0
2015-Jul-19 12:17N 38°42' W 009°25'3 3.8
2015-Jul-19 11:33N 38°41' W 009°22'2 0.1
2015-Jul-18 17:31N 38°41' W 009°19'4 3.8
2015-Jul-18 16:33N 38°42' W 009°23'1 0.9
2015-Jul-18 15:20N 38°42' W 009°25'0 0.0
2015-Jul-18 13:20N 38°42' W 009°25'1 1.2
2015-Jul-18 12:33N 38°42' W 009°24'4 4.1
2015-Jul-18 11:33N 38°40' W 009°19'  
2015-Jul-12 17:33N 38°41' W 009°19'5 4.4
2015-Jul-12 16:28N 38°42' W 009°25'0 0.0
2015-Jul-12 15:28N 38°42' W 009°25'0 0.0
2015-Jul-12 12:23N 38°42' W 009°25'2 2.6
2015-Jul-12 11:30N 38°40' W 009°23'  
Track history (hours):
 
Tides and Currents Weather Stations Pressure Air Temp Water Temp Dewpoint Dewpoint Depression Visibility Wind Speed Wind Dir Waves Ship Positions

Match Point

Last reported at 2015-Jul-19 17:33 UTC. Time now 2015-Jul-29 15:55 UTC.
Position N 38°40' W 009°21'.
Warning: this ship's position is 9 days out of date.

Length 15 m.

Type: Sailing vessel. MMSI: 263913640.

Date/timePositionNaut miles runAvg speedWind from/ knotsBaromVisibWave heightAir tempDewpointWater temp
2015-Jul-19 17:33N 38°40' W 009°21'3 1.4
2015-Jul-19 15:07N 38°42' W 009°25'0 0.0
2015-Jul-19 14:31N 38°42' W 009°25'0 0.0
2015-Jul-19 13:31N 38°42' W 009°25'0 0.0
2015-Jul-19 12:17N 38°42' W 009°25'3 3.8
2015-Jul-19 11:33N 38°41' W 009°22'2 0.1
2015-Jul-18 17:31N 38°41' W 009°19'4 3.8
2015-Jul-18 16:33N 38°42' W 009°23'1 0.9
2015-Jul-18 15:20N 38°42' W 009°25'0 0.0
2015-Jul-18 13:20N 38°42' W 009°25'1 1.2
2015-Jul-18 12:33N 38°42' W 009°24'4 4.1
2015-Jul-18 11:33N 38°40' W 009°19'  
2015-Jul-12 17:33N 38°41' W 009°19'5 4.4
2015-Jul-12 16:28N 38°42' W 009°25'0 0.0
2015-Jul-12 15:28N 38°42' W 009°25'0 0.0
2015-Jul-12 12:23N 38°42' W 009°25'2 2.6
2015-Jul-12 11:30N 38°40' W 009°23'  

Dump ship's entire track history